Latest Weather Observations for Aireys Inlet

IDV60801

Issued at 3:02 pm EDT Thursday 29 January 2015 (issued every 30 minutes, with the page automatically refreshed every 10 minutes)

About weather observations | Map of weather stations | Latest weather observations for VIC | Other Formats
Station Details ID: 090180 Name: AIREYS INLET Lat: -38.46 Lon: 144.09 Height: 95.0 m
Data from the previous 72 hours. | See also: Recent months at Aireys Inlet
Date/Time
EDT
Temp
°C
App
Temp
°C
Dew
Point
Rel
Hum
%
Delta-T
°C
Wind Press
QNH
hPa
Press
MSL
hPa
Rain
since 9 am
mm
Dir
 
Spd
km/h
Gust
km/h
Spd
kts
Gust
kts
29/03:00pm 20.0 17.1 11.0 56 4.9 SSE 17 30 9 16 - - 0.0
29/02:30pm 19.7 17.2 10.9 57 4.8 SSE 15 30 8 16 - - 0.0
29/02:00pm 20.5 17.8 10.3 52 5.5 SSE 15 32 8 17 - - 0.0
29/01:30pm 19.8 17.0 10.0 53 5.3 SSE 15 24 8 13 - - 0.0
29/01:00pm 19.8 16.6 10.0 53 5.3 SE 17 30 9 16 - - 0.0
29/12:30pm 17.8 14.8 9.2 57 4.5 SE 15 24 8 13 - - 0.0
29/12:00pm 18.2 15.6 9.5 57 4.6 SE 13 24 7 13 - - 0.0
29/11:30am 17.9 14.1 9.0 56 4.6 SE 19 28 10 15 - - 0.0
29/11:00am 17.7 15.0 9.1 57 4.5 SE 13 24 7 13 - - 0.0
29/10:30am 18.3 16.1 10.7 61 4.1 SE 13 24 7 13 - - 0.0
29/10:00am 16.6 13.5 10.2 66 3.4 ESE 17 28 9 15 - - 0.0
29/09:30am 17.1 14.6 10.9 67 3.3 ESE 15 22 8 12 - - 0.0
29/09:00am 17.0 13.7 9.7 62 3.8 SE 17 26 9 14 - - 0.0
29/08:30am 16.0 13.7 10.3 69 3.0 SE 13 26 7 14 - - 0.0
29/08:00am 16.4 13.1 9.6 64 3.6 ESE 17 28 9 15 - - 0.0
29/07:30am 16.3 13.1 9.9 66 3.4 ESE 17 32 9 17 - - 0.0
29/07:00am 15.8 13.0 9.9 68 3.1 ESE 15 24 8 13 - - 0.0
29/06:30am 15.4 12.4 9.3 67 3.2 SE 15 24 8 13 - - 0.0
29/06:00am 15.2 12.7 9.6 69 2.9 ESE 13 20 7 11 - - 0.0
29/05:30am 15.3 12.9 9.9 70 2.8 ESE 13 24 7 13 - - 0.0
29/05:00am 15.2 14.4 11.2 77 2.1 ESE 6 11 3 6 - - 0.0
29/04:30am 15.4 13.7 11.2 76 2.3 E 11 24 6 13 - - 0.0
29/04:00am 15.7 13.9 10.9 73 2.6 ESE 11 22 6 12 - - 0.0
29/03:30am 15.8 13.5 10.6 71 2.8 ESE 13 22 7 12 - - 0.0
29/03:00am 15.9 13.2 10.4 70 2.9 ESE 15 22 8 12 - - 0.0
29/02:30am 15.7 13.5 10.7 72 2.7 E 13 20 7 11 - - 0.0
29/02:00am 15.7 13.3 11.3 75 2.4 ESE 15 26 8 14 - - 0.0
29/01:30am 15.8 13.6 12.0 78 2.1 SE 15 26 8 14 - - 0.0
29/01:00am 15.9 13.0 11.1 73 2.6 SE 17 28 9 15 - - 0.0
29/12:30am 15.7 12.9 11.3 75 2.4 SE 17 30 9 16 - - 0.0
29/12:00am 15.5 12.6 11.1 75 2.4 SE 17 26 9 14 - - 0.0
 
Date/Time
EDT
Temp
°C
App
Temp
°C
Dew
Point
Rel
Hum
%
Delta-T
°C
Wind Press
QNH
hPa
Press
MSL
hPa
Rain
since 9 am
mm
Dir
 
Spd
km/h
Gust
km/h
Spd
kts
Gust
kts
28/11:30pm 15.5 12.6 11.1 75 2.4 SE 17 30 9 16 - - 0.0
28/11:00pm 15.5 12.5 10.5 72 2.7 SE 17 33 9 18 - - 0.0
28/10:30pm 15.4 11.8 10.0 70 2.8 SE 19 30 10 16 - - 0.0
28/10:00pm 15.5 12.0 10.3 71 2.7 SSE 19 32 10 17 - - 0.0
28/09:30pm 15.6 12.0 10.4 71 2.8 SSE 20 32 11 17 - - 0.0
28/09:00pm 15.9 12.2 10.0 68 3.1 SSE 20 33 11 18 - - 0.0
28/08:30pm 16.1 12.5 9.8 66 3.3 SE 19 28 10 15 - - 0.0
28/08:00pm 16.6 13.0 10.5 67 3.3 SE 20 32 11 17 - - 0.0
28/07:30pm 17.3 14.4 10.9 66 3.5 SE 17 28 9 15 - - 0.0
28/07:00pm 17.7 14.0 10.3 62 4.0 SE 20 35 11 19 - - 0.0
28/06:30pm 18.2 15.1 11.7 66 3.6 SE 19 33 10 18 - - 0.0
28/06:00pm 18.4 15.1 11.7 65 3.7 SE 20 37 11 20 - - 0.0
28/05:30pm 18.9 15.9 12.6 67 3.5 SE 20 35 11 19 - - 0.0
28/05:00pm 18.8 15.2 13.2 70 3.2 SE 24 39 13 21 - - 0.0
28/04:30pm 19.0 16.1 13.0 68 3.4 SE 20 33 11 18 - - 0.0
28/04:00pm 19.5 15.7 12.5 64 3.9 SE 24 41 13 22 - - 0.0
28/03:30pm 19.5 16.3 13.2 67 3.6 SE 22 43 12 23 - - 0.0
28/03:00pm 19.4 15.5 12.2 63 4.0 SE 24 41 13 22 - - 0.0
28/02:30pm 19.9 16.4 12.2 61 4.3 SE 22 41 12 22 - - 0.0
28/02:00pm 20.2 16.7 12.2 60 4.5 SE 22 37 12 20 - - 0.0
28/01:30pm 20.2 17.3 12.9 63 4.2 SE 20 32 11 17 - - 0.0
28/01:00pm 19.9 16.5 12.4 62 4.2 SE 22 37 12 20 - - 0.0
28/12:30pm 19.4 16.7 12.9 66 3.7 SE 19 33 10 18 - - 0.0
28/12:00pm 19.2 16.2 12.7 66 3.7 ESE 20 32 11 17 - - 0.0
28/11:30am 18.6 15.6 11.9 65 3.7 ESE 19 30 10 16 - - 0.0
28/11:00am 18.4 15.5 11.0 62 4.0 SE 17 26 9 14 - - 0.0
28/10:30am 18.1 14.5 10.5 61 4.1 ESE 20 32 11 17 - - 0.0
28/10:00am 18.5 15.3 11.1 62 4.0 ESE 19 32 10 17 - - 0.0
28/09:30am 18.1 15.1 10.7 62 4.0 ESE 17 30 9 16 - - 0.0
28/09:00am 17.5 15.6 11.8 69 3.1 ESE 13 20 7 11 - - 0.0
28/08:30am 17.0 15.4 11.5 70 3.0 ESE 11 19 6 10 - - 0.0
28/08:00am 16.5 15.6 12.5 77 2.2 ESE 9 15 5 8 - - 0.0
28/07:30am 16.3 15.8 12.7 79 2.0 ESE 7 11 4 6 - - 0.0
28/07:00am 14.9 14.3 12.4 85 1.4 SSE 7 11 4 6 - - 0.0
28/06:30am 14.5 13.0 12.0 85 1.4 S 11 17 6 9 - - 0.0
28/06:00am 14.5 12.1 11.5 82 1.6 S 15 20 8 11 - - 0.0
28/05:30am 14.4 12.1 11.6 83 1.5 S 15 22 8 12 - - 0.0
28/05:00am 14.4 11.6 11.2 81 1.7 S 17 26 9 14 - - 0.0
28/04:30am 14.4 11.1 11.0 80 1.8 S 19 28 10 15 - - 0.0
28/04:00am 14.5 11.0 10.9 79 1.9 S 20 30 11 16 - - 0.0
28/03:30am 14.6 11.2 11.2 80 1.8 S 20 32 11 17 - - 0.0
28/03:00am 14.5 11.0 10.9 79 1.9 S 20 32 11 17 - - 0.0
28/02:30am 14.6 11.0 10.6 77 2.1 SSE 20 32 11 17 - - 0.0
28/02:00am 14.7 11.3 10.7 77 2.1 SSE 19 28 10 15 - - 0.0
28/01:30am 14.8 11.2 10.6 76 2.2 SSE 20 30 11 16 - - 0.0
28/01:00am 14.5 10.9 10.5 77 2.1 S 20 32 11 17 - - 0.0
28/12:30am 14.4 9.8 9.6 73 2.5 S 24 33 13 18 - - 0.0
28/12:00am 14.4 10.4 9.0 70 2.8 SSE 20 32 11 17 - - 0.0
 
Date/Time
EDT
Temp
°C
App
Temp
°C
Dew
Point
Rel
Hum
%
Delta-T
°C
Wind Press
QNH
hPa
Press
MSL
hPa
Rain
since 9 am
mm
Dir
 
Spd
km/h
Gust
km/h
Spd
kts
Gust
kts
27/11:30pm 14.5 9.8 9.1 70 2.8 S 24 33 13 18 - - 0.0
27/11:00pm 14.3 10.2 8.7 69 2.8 S 20 32 11 17 - - 0.0
27/10:30pm 14.4 9.6 8.8 69 2.8 SSE 24 35 13 19 - - 0.0
27/10:00pm 14.7 10.5 9.7 72 2.6 SSE 22 32 12 17 - - 0.0
27/09:30pm 14.7 11.0 9.5 71 2.7 S 19 30 10 16 - - 0.0
27/09:00pm 14.8 11.1 10.0 73 2.5 SSW 20 30 11 16 - - 0.0
27/08:30pm 14.8 11.2 9.8 72 2.6 S 19 26 10 14 - - 0.0
27/08:00pm 14.9 11.7 9.9 72 2.6 S 17 28 9 15 - - 0.0
27/07:30pm 14.8 11.8 9.4 70 2.8 SSE 15 28 8 15 - - 0.0
27/07:00pm 15.4 11.6 9.1 66 3.2 S 19 30 10 16 - - 0.0
27/06:30pm 15.2 11.3 9.3 68 3.0 S 20 32 11 17 - - 0.0
27/06:00pm 15.8 11.8 9.2 65 3.4 S 20 35 11 19 - - 0.0
27/05:30pm 16.4 12.1 7.9 57 4.3 S 20 30 11 16 - - 0.0
27/05:00pm 16.7 12.3 7.4 54 4.7 S 20 32 11 17 - - 0.0
27/04:30pm 17.8 14.3 8.6 55 4.8 SSE 17 28 9 15 - - 0.0
27/04:00pm 17.4 13.1 8.0 54 4.8 S 20 30 11 16 - - 0.0
27/03:30pm 17.3 13.5 9.0 58 4.3 SSE 19 33 10 18 - - 0.0
27/03:00pm 16.5 12.6 8.7 60 4.0 S 19 28 10 15 - - 0.0
27/02:30pm 18.8 14.6 8.2 50 5.5 S 20 32 11 17 - - 0.0
27/02:00pm 18.6 14.5 7.7 49 5.6 S 19 28 10 15 - - 0.0
27/01:30pm 19.1 15.4 9.3 53 5.2 S 19 28 10 15 - - 0.0
27/01:00pm 18.1 13.9 7.5 50 5.4 S 19 26 10 14 - - 0.0
27/12:30pm 18.9 15.2 8.0 49 5.6 S 17 32 9 17 - - 0.0
27/12:00pm 18.5 14.6 8.5 52 5.2 S 19 26 10 14 - - 0.0
27/11:30am 18.4 15.2 8.4 52 5.2 SSE 15 24 8 13 - - 0.0
27/11:00am 17.2 13.1 7.8 54 4.8 SSE 19 26 10 14 - - 0.0
27/10:30am 17.2 13.6 8.4 56 4.5 SSE 17 26 9 14 - - 0.0
27/10:00am 16.1 12.5 8.3 60 4.0 S 17 28 9 15 - - 0.0
27/09:30am 16.4 12.7 8.1 58 4.2 S 17 24 9 13 - - 0.0
27/09:00am 15.6 12.3 7.9 60 3.9 SSE 15 26 8 14 - - 0.0
27/08:30am 15.5 12.0 7.3 58 4.1 SSE 15 24 8 13 - - 0.0
27/08:00am 15.0 11.5 7.3 60 3.8 SSE 15 24 8 13 - - 0.0
27/07:30am 13.8 10.8 7.8 67 3.0 SSE 13 20 7 11 - - 0.0
27/07:00am 13.4 9.9 7.0 65 3.1 SSE 15 22 8 12 - - 0.0
27/06:30am 13.3 10.3 7.5 68 2.9 SSE 13 20 7 11 - - 0.0
27/06:00am 13.5 10.5 7.7 68 2.9 SSE 13 24 7 13 - - 0.0
27/05:30am 13.6 10.2 7.6 67 3.0 SSE 15 28 8 15 - - 0.0
27/05:00am 13.6 10.6 7.8 68 2.9 SSE 13 19 7 10 - - 0.0
27/04:30am 13.8 10.9 8.0 68 2.9 SSE 13 20 7 11 - - 0.0
27/04:00am 14.2 11.4 8.4 68 2.9 SSE 13 22 7 12 - - 0.0
27/03:30am 14.2 12.1 8.4 68 2.9 SE 9 19 5 10 - - 0.0
27/03:00am 14.2 12.1 8.4 68 2.9 SE 9 17 5 9 - - 0.0
27/02:30am 13.9 12.2 8.3 69 2.8 SE 7 11 4 6 - - 0.0
27/02:00am 13.6 11.9 8.4 71 2.6 SE 7 13 4 7 - - 0.0
27/01:30am 13.5 11.5 8.6 72 2.5 SSE 9 13 5 7 - - 0.0
27/01:00am 13.3 11.2 8.2 71 2.5 SSE 9 13 5 7 - - 0.0
27/12:30am 13.9 11.0 8.3 69 2.8 SSE 13 20 7 11 - - 0.0
27/12:00am 13.5 11.1 8.6 72 2.5 SSE 11 15 6 8 - - 0.0
 
Date/Time
EDT
Temp
°C
App
Temp
°C
Dew
Point
Rel
Hum
%
Delta-T
°C
Wind Press
QNH
hPa
Press
MSL
hPa
Rain
since 9 am
mm
Dir
 
Spd
km/h
Gust
km/h
Spd
kts
Gust
kts
26/11:30pm 13.8 11.0 8.6 71 2.6 SSE 13 20 7 11 - - 0.0
26/11:00pm 13.7 10.9 8.5 71 2.6 S 13 19 7 10 - - 0.0
26/10:30pm 13.6 10.6 7.6 67 3.0 S 13 20 7 11 - - 0.0
26/10:00pm 13.7 10.2 7.0 64 3.3 S 15 26 8 14 - - 0.0
26/09:30pm 13.9 10.6 8.1 68 2.9 S 15 22 8 12 - - 0.0
26/09:00pm 14.1 10.9 8.5 69 2.8 S 15 24 8 13 - - 0.0
26/08:30pm 14.4 11.1 7.9 65 3.2 S 15 24 8 13 - - 0.0
26/08:00pm 15.4 11.6 7.7 60 3.9 S 17 26 9 14 - - 0.0
26/07:30pm 15.7 11.5 7.5 58 4.1 SSW 19 28 10 15 - - 0.0
26/07:00pm 15.6 11.4 7.6 59 4.0 S 19 30 10 16 - - 0.0
26/06:30pm 17.4 13.8 8.3 55 4.7 S 17 26 9 14 - - 0.0
26/06:00pm 16.9 12.5 7.5 54 4.7 SSW 20 30 11 16 - - 0.0
26/05:30pm 18.1 13.9 7.5 50 5.4 S 19 26 10 14 - - 0.0
26/05:00pm 18.7 14.7 8.1 50 5.5 S 19 28 10 15 - - 0.0
26/04:30pm 18.1 14.0 8.7 54 4.9 S 20 30 11 16 - - 0.0
26/04:00pm 18.2 13.8 7.6 50 5.4 S 20 30 11 16 - - 0.0
26/03:30pm 17.5 13.8 8.1 54 4.8 S 17 26 9 14 - - 0.0

Other Formats:

Comma delimited format used in spreadsheet applications
http://www.bom.gov.au/fwo/IDV60801/IDV60801.94846.axf

JavaScript Object Notation format (JSON) in row-major order
http://www.bom.gov.au/fwo/IDV60801/IDV60801.94846.json